sensor_id;sensor_type;location;lat;lon;timestamp;pressure;altitude;pressure_sealevel;temperature;humidity
55486;BME280;71262;-25.924;28.194;2023-07-13T00:01:24;86190.02;;;17.36;36.47
55486;BME280;71262;-25.924;28.194;2023-07-13T00:03:49;86189.17;;;17.27;36.60
55486;BME280;71262;-25.924;28.194;2023-07-13T00:06:14;86187.00;;;17.25;36.52
55486;BME280;71262;-25.924;28.194;2023-07-13T00:08:40;86183.30;;;17.49;36.57
55486;BME280;71262;-25.924;28.194;2023-07-13T00:11:05;86178.46;;;17.45;36.52
55486;BME280;71262;-25.924;28.194;2023-07-13T00:13:30;86177.85;;;17.38;36.58
55486;BME280;71262;-25.924;28.194;2023-07-13T00:15:56;86176.10;;;17.15;36.53
55486;BME280;71262;-25.924;28.194;2023-07-13T00:18:21;86173.49;;;17.62;36.51
55486;BME280;71262;-25.924;28.194;2023-07-13T00:20:47;86173.12;;;17.37;36.52
55486;BME280;71262;-25.924;28.194;2023-07-13T00:23:12;86174.01;;;16.98;36.73
55486;BME280;71262;-25.924;28.194;2023-07-13T00:25:37;86172.52;;;17.48;36.67
55486;BME280;71262;-25.924;28.194;2023-07-13T00:28:03;86174.06;;;17.47;36.85
55486;BME280;71262;-25.924;28.194;2023-07-13T00:30:28;86171.47;;;17.27;36.85
55486;BME280;71262;-25.924;28.194;2023-07-13T00:32:53;86169.89;;;17.48;36.80
55486;BME280;71262;-25.924;28.194;2023-07-13T00:35:18;86168.85;;;17.29;36.69
55486;BME280;71262;-25.924;28.194;2023-07-13T00:37:44;86167.34;;;17.53;36.63
55486;BME280;71262;-25.924;28.194;2023-07-13T00:40:10;86165.59;;;17.53;36.61
55486;BME280;71262;-25.924;28.194;2023-07-13T00:42:34;86165.56;;;17.52;36.53
55486;BME280;71262;-25.924;28.194;2023-07-13T00:45:03;86164.46;;;17.52;36.50
55486;BME280;71262;-25.924;28.194;2023-07-13T00:47:25;86163.88;;;17.30;36.46
55486;BME280;71262;-25.924;28.194;2023-07-13T00:49:50;86161.91;;;17.51;36.41
55486;BME280;71262;-25.924;28.194;2023-07-13T00:52:16;86156.45;;;17.48;36.39
55486;BME280;71262;-25.924;28.194;2023-07-13T00:54:45;86154.27;;;16.93;36.44
55486;BME280;71262;-25.924;28.194;2023-07-13T00:57:09;86153.70;;;17.45;36.35
55486;BME280;71262;-25.924;28.194;2023-07-13T00:59:32;86147.69;;;17.23;36.31
55486;BME280;71262;-25.924;28.194;2023-07-13T01:01:57;86147.31;;;17.23;36.31
55486;BME280;71262;-25.924;28.194;2023-07-13T01:04:25;86142.16;;;17.42;36.26
55486;BME280;71262;-25.924;28.194;2023-07-13T01:06:48;86143.82;;;17.48;36.15
55486;BME280;71262;-25.924;28.194;2023-07-13T01:09:14;86140.11;;;17.19;36.18
55486;BME280;71262;-25.924;28.194;2023-07-13T01:11:38;86136.97;;;17.40;36.23
55486;BME280;71262;-25.924;28.194;2023-07-13T01:14:03;86135.20;;;17.13;36.26
55486;BME280;71262;-25.924;28.194;2023-07-13T01:16:34;86132.23;;;16.89;36.23
55486;BME280;71262;-25.924;28.194;2023-07-13T01:18:55;86126.90;;;17.12;36.24
55486;BME280;71262;-25.924;28.194;2023-07-13T01:21:20;86124.10;;;17.32;36.29
55486;BME280;71262;-25.924;28.194;2023-07-13T01:23:45;86125.91;;;16.89;36.19
55486;BME280;71262;-25.924;28.194;2023-07-13T01:26:12;86125.89;;;17.17;36.15
55486;BME280;71262;-25.924;28.194;2023-07-13T01:28:36;86127.89;;;17.10;36.17
55486;BME280;71262;-25.924;28.194;2023-07-13T01:31:01;86126.34;;;16.90;36.04
55486;BME280;71262;-25.924;28.194;2023-07-13T01:33:27;86125.46;;;17.10;36.15
55486;BME280;71262;-25.924;28.194;2023-07-13T01:35:52;86126.69;;;16.89;36.09
55486;BME280;71262;-25.924;28.194;2023-07-13T01:38:20;86125.89;;;17.32;36.03
55486;BME280;71262;-25.924;28.194;2023-07-13T01:40:43;86126.50;;;17.08;36.11
55486;BME280;71262;-25.924;28.194;2023-07-13T01:43:08;86125.71;;;17.31;36.09
55486;BME280;71262;-25.924;28.194;2023-07-13T01:45:33;86125.51;;;17.26;36.07
55486;BME280;71262;-25.924;28.194;2023-07-13T01:47:58;86124.91;;;17.23;36.13
55486;BME280;71262;-25.924;28.194;2023-07-13T01:50:23;86123.85;;;16.94;36.09
55486;BME280;71262;-25.924;28.194;2023-07-13T01:52:48;86124.91;;;17.19;36.03
55486;BME280;71262;-25.924;28.194;2023-07-13T01:55:14;86126.38;;;17.22;36.03
55486;BME280;71262;-25.924;28.194;2023-07-13T01:57:40;86125.21;;;17.20;35.96
55486;BME280;71262;-25.924;28.194;2023-07-13T02:00:08;86123.80;;;17.17;35.98
55486;BME280;71262;-25.924;28.194;2023-07-13T02:02:31;86121.12;;;16.99;35.87
55486;BME280;71262;-25.924;28.194;2023-07-13T02:04:56;86120.99;;;17.25;35.84
55486;BME280;71262;-25.924;28.194;2023-07-13T02:07:21;86122.52;;;17.14;35.90
55486;BME280;71262;-25.924;28.194;2023-07-13T02:09:47;86120.90;;;17.16;35.83
55486;BME280;71262;-25.924;28.194;2023-07-13T02:12:12;86123.03;;;17.15;35.85
55486;BME280;71262;-25.924;28.194;2023-07-13T02:14:38;86122.09;;;17.13;35.80
55486;BME280;71262;-25.924;28.194;2023-07-13T02:17:04;86123.65;;;17.10;35.79
55486;BME280;71262;-25.924;28.194;2023-07-13T02:19:29;86126.19;;;17.06;35.76
55486;BME280;71262;-25.924;28.194;2023-07-13T02:21:55;86126.26;;;16.80;35.76
55486;BME280;71262;-25.924;28.194;2023-07-13T02:24:20;86124.86;;;17.04;35.70
55486;BME280;71262;-25.924;28.194;2023-07-13T02:26:45;86120.39;;;17.08;35.64
55486;BME280;71262;-25.924;28.194;2023-07-13T02:29:10;86117.04;;;17.05;35.73
55486;BME280;71262;-25.924;28.194;2023-07-13T02:31:36;86115.81;;;17.00;35.70
55486;BME280;71262;-25.924;28.194;2023-07-13T02:34:01;86113.16;;;17.02;35.66
55486;BME280;71262;-25.924;28.194;2023-07-13T02:36:26;86112.59;;;16.53;35.63
55486;BME280;71262;-25.924;28.194;2023-07-13T02:38:51;86114.50;;;17.02;35.56
55486;BME280;71262;-25.924;28.194;2023-07-13T02:41:17;86114.86;;;16.98;35.62
55486;BME280;71262;-25.924;28.194;2023-07-13T02:43:42;86111.66;;;16.94;35.59
55486;BME280;71262;-25.924;28.194;2023-07-13T02:46:07;86113.73;;;16.76;35.52
55486;BME280;71262;-25.924;28.194;2023-07-13T02:48:33;86114.23;;;17.19;35.51
55486;BME280;71262;-25.924;28.194;2023-07-13T02:50:58;86116.05;;;16.90;35.57
55486;BME280;71262;-25.924;28.194;2023-07-13T02:53:23;86120.08;;;16.88;35.62
55486;BME280;71262;-25.924;28.194;2023-07-13T02:55:48;86120.92;;;16.89;35.58
55486;BME280;71262;-25.924;28.194;2023-07-13T02:58:14;86116.49;;;16.89;35.60
55486;BME280;71262;-25.924;28.194;2023-07-13T03:00:40;86115.80;;;16.85;35.60
55486;BME280;71262;-25.924;28.194;2023-07-13T03:03:05;86115.16;;;16.86;35.54
55486;BME280;71262;-25.924;28.194;2023-07-13T03:05:30;86113.73;;;16.85;35.53
55486;BME280;71262;-25.924;28.194;2023-07-13T03:07:55;86112.92;;;16.57;35.59
55486;BME280;71262;-25.924;28.194;2023-07-13T03:10:20;86112.82;;;16.82;35.55
55486;BME280;71262;-25.924;28.194;2023-07-13T03:12:46;86114.29;;;16.86;35.53
55486;BME280;71262;-25.924;28.194;2023-07-13T03:15:11;86112.62;;;16.82;35.65
55486;BME280;71262;-25.924;28.194;2023-07-13T03:17:36;86113.28;;;16.81;35.65
55486;BME280;71262;-25.924;28.194;2023-07-13T03:20:02;86115.86;;;16.81;35.63
55486;BME280;71262;-25.924;28.194;2023-07-13T03:22:27;86117.17;;;16.81;35.58
55486;BME280;71262;-25.924;28.194;2023-07-13T03:24:52;86116.53;;;16.60;35.58
55486;BME280;71262;-25.924;28.194;2023-07-13T03:27:18;86117.93;;;16.74;35.64
55486;BME280;71262;-25.924;28.194;2023-07-13T03:29:43;86120.74;;;16.78;35.58
55486;BME280;71262;-25.924;28.194;2023-07-13T03:32:09;86123.28;;;16.83;35.49
55486;BME280;71262;-25.924;28.194;2023-07-13T03:34:34;86125.24;;;16.60;35.48
55486;BME280;71262;-25.924;28.194;2023-07-13T03:36:59;86124.47;;;16.84;35.37
55486;BME280;71262;-25.924;28.194;2023-07-13T03:39:26;86122.48;;;16.73;35.46
55486;BME280;71262;-25.924;28.194;2023-07-13T03:41:50;86126.67;;;16.70;35.56
55486;BME280;71262;-25.924;28.194;2023-07-13T03:44:17;86129.68;;;16.69;35.65
55486;BME280;71262;-25.924;28.194;2023-07-13T03:46:41;86134.53;;;16.68;35.72
55486;BME280;71262;-25.924;28.194;2023-07-13T03:49:08;86140.02;;;16.67;35.78
55486;BME280;71262;-25.924;28.194;2023-07-13T03:51:32;86142.54;;;16.63;35.81
55486;BME280;71262;-25.924;28.194;2023-07-13T03:53:59;86141.31;;;16.64;35.80
55486;BME280;71262;-25.924;28.194;2023-07-13T03:56:23;86139.72;;;16.63;35.77
55486;BME280;71262;-25.924;28.194;2023-07-13T03:58:49;86140.94;;;16.87;35.68
55486;BME280;71262;-25.924;28.194;2023-07-13T04:01:16;86143.50;;;16.58;35.73
55486;BME280;71262;-25.924;28.194;2023-07-13T04:03:39;86145.58;;;16.66;35.66
55486;BME280;71262;-25.924;28.194;2023-07-13T04:06:07;86146.87;;;16.63;35.64
55486;BME280;71262;-25.924;28.194;2023-07-13T04:08:31;86148.04;;;16.58;35.73
55486;BME280;71262;-25.924;28.194;2023-07-13T04:10:55;86150.91;;;16.58;35.73
55486;BME280;71262;-25.924;28.194;2023-07-13T04:13:21;86152.52;;;16.57;35.71
55486;BME280;71262;-25.924;28.194;2023-07-13T04:15:46;86151.25;;;16.57;35.66
55486;BME280;71262;-25.924;28.194;2023-07-13T04:18:12;86150.38;;;16.60;35.58
55486;BME280;71262;-25.924;28.194;2023-07-13T04:20:37;86150.98;;;16.57;35.64
55486;BME280;71262;-25.924;28.194;2023-07-13T04:23:03;86148.74;;;16.50;35.60
55486;BME280;71262;-25.924;28.194;2023-07-13T04:25:28;86149.04;;;16.52;35.57
55486;BME280;71262;-25.924;28.194;2023-07-13T04:27:53;86150.54;;;16.75;35.57
55486;BME280;71262;-25.924;28.194;2023-07-13T04:30:18;86150.96;;;16.47;35.59
55486;BME280;71262;-25.924;28.194;2023-07-13T04:32:44;86151.65;;;16.51;35.59
55486;BME280;71262;-25.924;28.194;2023-07-13T04:35:10;86152.82;;;16.49;35.53
55486;BME280;71262;-25.924;28.194;2023-07-13T04:37:34;86156.11;;;16.50;35.55
55486;BME280;71262;-25.924;28.194;2023-07-13T04:40:00;86158.34;;;16.46;35.56
55486;BME280;71262;-25.924;28.194;2023-07-13T04:42:25;86158.33;;;16.52;35.45
55486;BME280;71262;-25.924;28.194;2023-07-13T04:44:51;86159.64;;;16.69;35.53
55486;BME280;71262;-25.924;28.194;2023-07-13T04:47:16;86159.46;;;16.50;35.34
55486;BME280;71262;-25.924;28.194;2023-07-13T04:49:41;86160.56;;;16.51;35.46
55486;BME280;71262;-25.924;28.194;2023-07-13T04:52:07;86160.42;;;16.42;35.49
55486;BME280;71262;-25.924;28.194;2023-07-13T04:54:32;86160.75;;;16.41;35.53
55486;BME280;71262;-25.924;28.194;2023-07-13T04:56:57;86160.06;;;16.41;35.43
55486;BME280;71262;-25.924;28.194;2023-07-13T04:59:22;86158.27;;;16.42;35.35
55486;BME280;71262;-25.924;28.194;2023-07-13T05:01:47;86156.38;;;16.41;35.52
55486;BME280;71262;-25.924;28.194;2023-07-13T05:04:13;86159.36;;;16.60;35.55
55486;BME280;71262;-25.924;28.194;2023-07-13T05:06:38;86161.65;;;16.38;35.78
55486;BME280;71262;-25.924;28.194;2023-07-13T05:09:03;86164.93;;;16.68;35.90
55486;BME280;71262;-25.924;28.194;2023-07-13T05:11:29;86165.61;;;16.43;36.16
55486;BME280;71262;-25.924;28.194;2023-07-13T05:13:54;86166.35;;;16.37;36.41
55486;BME280;71262;-25.924;28.194;2023-07-13T05:16:20;86167.24;;;16.40;36.53
55486;BME280;71262;-25.924;28.194;2023-07-13T05:18:45;86172.11;;;16.44;36.60
55486;BME280;71262;-25.924;28.194;2023-07-13T05:21:12;86174.43;;;16.46;36.68
55486;BME280;71262;-25.924;28.194;2023-07-13T05:23:37;86174.83;;;16.49;36.74
55486;BME280;71262;-25.924;28.194;2023-07-13T05:26:03;86176.33;;;16.83;36.84
55486;BME280;71262;-25.924;28.194;2023-07-13T05:28:28;86177.68;;;16.71;36.80
55486;BME280;71262;-25.924;28.194;2023-07-13T05:30:54;86179.71;;;16.71;37.53
55486;BME280;71262;-25.924;28.194;2023-07-13T05:33:19;86185.34;;;16.85;38.33
55486;BME280;71262;-25.924;28.194;2023-07-13T05:35:44;86187.10;;;16.67;39.68
55486;BME280;71262;-25.924;28.194;2023-07-13T05:38:09;86187.37;;;16.71;40.45
55486;BME280;71262;-25.924;28.194;2023-07-13T05:40:35;86184.96;;;16.54;41.05
55486;BME280;71262;-25.924;28.194;2023-07-13T05:43:00;86180.24;;;17.11;41.49
55486;BME280;71262;-25.924;28.194;2023-07-13T05:45:25;86181.69;;;16.60;42.28
55486;BME280;71262;-25.924;28.194;2023-07-13T05:47:50;86184.47;;;17.23;42.63
55486;BME280;71262;-25.924;28.194;2023-07-13T05:50:16;86187.68;;;16.92;42.80
55486;BME280;71262;-25.924;28.194;2023-07-13T05:52:41;86186.03;;;17.20;43.10
55486;BME280;71262;-25.924;28.194;2023-07-13T05:55:07;86186.16;;;17.18;42.93
55486;BME280;71262;-25.924;28.194;2023-07-13T05:57:32;86187.80;;;17.15;44.24
55486;BME280;71262;-25.924;28.194;2023-07-13T05:59:57;86188.51;;;17.44;43.76
55486;BME280;71262;-25.924;28.194;2023-07-13T06:02:23;86188.49;;;17.46;43.38
55486;BME280;71262;-25.924;28.194;2023-07-13T06:04:48;86189.78;;;17.54;41.91
55486;BME280;71262;-25.924;28.194;2023-07-13T06:07:15;86192.30;;;18.15;41.23
55486;BME280;71262;-25.924;28.194;2023-07-13T06:09:40;86197.06;;;18.01;41.23
55486;BME280;71262;-25.924;28.194;2023-07-13T06:12:07;86201.11;;;17.59;40.60
55486;BME280;71262;-25.924;28.194;2023-07-13T06:14:31;86202.22;;;17.68;39.98
55486;BME280;71262;-25.924;28.194;2023-07-13T06:16:57;86201.85;;;17.93;39.34
55486;BME280;71262;-25.924;28.194;2023-07-13T06:19:22;86205.44;;;18.11;38.42
55486;BME280;71262;-25.924;28.194;2023-07-13T06:21:48;86206.04;;;18.31;38.22
55486;BME280;71262;-25.924;28.194;2023-07-13T06:24:13;86207.47;;;18.26;37.61
55486;BME280;71262;-25.924;28.194;2023-07-13T06:26:38;86213.00;;;18.56;37.81
55486;BME280;71262;-25.924;28.194;2023-07-13T06:29:04;86216.64;;;18.61;37.35
55486;BME280;71262;-25.924;28.194;2023-07-13T06:31:30;86217.33;;;18.65;37.44
55486;BME280;71262;-25.924;28.194;2023-07-13T06:33:55;86217.33;;;18.59;36.97
55486;BME280;71262;-25.924;28.194;2023-07-13T06:36:20;86216.94;;;18.61;37.59
55486;BME280;71262;-25.924;28.194;2023-07-13T06:38:45;86218.43;;;18.86;37.14
55486;BME280;71262;-25.924;28.194;2023-07-13T06:41:11;86219.10;;;18.86;37.01
55486;BME280;71262;-25.924;28.194;2023-07-13T06:43:36;86220.74;;;19.06;36.69
55486;BME280;71262;-25.924;28.194;2023-07-13T06:46:01;86222.47;;;19.16;36.34
55486;BME280;71262;-25.924;28.194;2023-07-13T06:48:26;86227.59;;;18.94;36.34
55486;BME280;71262;-25.924;28.194;2023-07-13T06:50:51;86231.01;;;19.01;37.02
55486;BME280;71262;-25.924;28.194;2023-07-13T06:53:18;86234.69;;;19.06;37.19
55486;BME280;71262;-25.924;28.194;2023-07-13T06:55:44;86237.97;;;19.57;36.88
55486;BME280;71262;-25.924;28.194;2023-07-13T06:58:07;86237.71;;;19.20;38.08
55486;BME280;71262;-25.924;28.194;2023-07-13T07:00:31;86236.28;;;19.59;37.36
55486;BME280;71262;-25.924;28.194;2023-07-13T07:02:57;86235.66;;;19.43;37.77
55486;BME280;71262;-25.924;28.194;2023-07-13T07:05:22;86234.07;;;19.53;37.65
55486;BME280;71262;-25.924;28.194;2023-07-13T07:07:49;86233.41;;;19.49;38.01
55486;BME280;71262;-25.924;28.194;2023-07-13T07:10:15;86232.01;;;19.56;37.88
55486;BME280;71262;-25.924;28.194;2023-07-13T07:12:38;86231.92;;;19.78;37.13
55486;BME280;71262;-25.924;28.194;2023-07-13T07:15:04;86231.77;;;19.80;37.72
55486;BME280;71262;-25.924;28.194;2023-07-13T07:17:29;86230.06;;;19.63;37.16
55486;BME280;71262;-25.924;28.194;2023-07-13T07:19:54;86229.61;;;20.09;36.94
55486;BME280;71262;-25.924;28.194;2023-07-13T07:22:19;86229.13;;;19.70;36.71
55486;BME280;71262;-25.924;28.194;2023-07-13T07:24:44;86229.32;;;19.89;36.70
55486;BME280;71262;-25.924;28.194;2023-07-13T07:27:09;86228.06;;;20.01;36.55
55486;BME280;71262;-25.924;28.194;2023-07-13T07:29:34;86225.94;;;19.67;36.56
55486;BME280;71262;-25.924;28.194;2023-07-13T07:32:00;86224.01;;;19.77;36.42
55486;BME280;71262;-25.924;28.194;2023-07-13T07:34:24;86225.94;;;19.89;36.29
55486;BME280;71262;-25.924;28.194;2023-07-13T07:36:49;86223.71;;;19.95;36.00
55486;BME280;71262;-25.924;28.194;2023-07-13T07:39:14;86225.29;;;20.01;35.84
55486;BME280;71262;-25.924;28.194;2023-07-13T07:41:40;86224.82;;;19.99;36.02
55486;BME280;71262;-25.924;28.194;2023-07-13T07:44:05;86222.56;;;20.04;35.94
55486;BME280;71262;-25.924;28.194;2023-07-13T07:46:30;86224.43;;;20.25;35.75
55486;BME280;71262;-25.924;28.194;2023-07-13T07:48:56;86224.73;;;20.36;35.55
55486;BME280;71262;-25.924;28.194;2023-07-13T07:51:20;86225.53;;;20.09;35.44
55486;BME280;71262;-25.924;28.194;2023-07-13T07:53:45;86230.79;;;20.32;35.70
55486;BME280;71262;-25.924;28.194;2023-07-13T07:56:11;86229.01;;;20.02;35.24
55486;BME280;71262;-25.924;28.194;2023-07-13T07:58:35;86225.77;;;20.32;35.06
55486;BME280;71262;-25.924;28.194;2023-07-13T08:01:05;86227.16;;;20.28;35.14
55486;BME280;71262;-25.924;28.194;2023-07-13T08:03:26;86227.53;;;19.95;35.24
55486;BME280;71262;-25.924;28.194;2023-07-13T08:05:53;86227.91;;;20.31;34.91
55486;BME280;71262;-25.924;28.194;2023-07-13T08:08:16;86226.46;;;20.14;34.88
55486;BME280;71262;-25.924;28.194;2023-07-13T08:10:41;86225.15;;;20.09;34.88
55486;BME280;71262;-25.924;28.194;2023-07-13T08:13:06;86222.46;;;20.31;34.80
55486;BME280;71262;-25.924;28.194;2023-07-13T08:15:31;86221.80;;;20.21;34.55
55486;BME280;71262;-25.924;28.194;2023-07-13T08:17:56;86217.95;;;20.34;34.73
55486;BME280;71262;-25.924;28.194;2023-07-13T08:20:21;86217.85;;;20.35;34.71
55486;BME280;71262;-25.924;28.194;2023-07-13T08:22:46;86218.21;;;20.39;34.60
55486;BME280;71262;-25.924;28.194;2023-07-13T08:25:11;86215.01;;;20.27;34.39
55486;BME280;71262;-25.924;28.194;2023-07-13T08:27:36;86211.53;;;20.50;34.32
55486;BME280;71262;-25.924;28.194;2023-07-13T08:30:01;86209.74;;;20.29;34.28
55486;BME280;71262;-25.924;28.194;2023-07-13T08:32:26;86207.93;;;20.47;34.33
55486;BME280;71262;-25.924;28.194;2023-07-13T08:34:51;86202.98;;;20.02;34.22
55486;BME280;71262;-25.924;28.194;2023-07-13T08:37:17;86200.13;;;20.03;34.21
55486;BME280;71262;-25.924;28.194;2023-07-13T08:39:42;86195.11;;;20.31;34.15
55486;BME280;71262;-25.924;28.194;2023-07-13T08:42:12;86193.81;;;20.35;34.09
55486;BME280;71262;-25.924;28.194;2023-07-13T08:44:38;86195.42;;;20.53;33.95
55486;BME280;71262;-25.924;28.194;2023-07-13T08:46:57;86191.60;;;20.33;33.89
55486;BME280;71262;-25.924;28.194;2023-07-13T08:49:23;86192.25;;;20.35;33.77
55486;BME280;71262;-25.924;28.194;2023-07-13T08:51:50;86190.35;;;20.52;33.89
55486;BME280;71262;-25.924;28.194;2023-07-13T08:54:19;86186.70;;;20.37;33.81
55486;BME280;71262;-25.924;28.194;2023-07-13T08:56:37;86185.48;;;20.42;33.70
55486;BME280;71262;-25.924;28.194;2023-07-13T08:59:06;86182.56;;;20.40;33.72
55486;BME280;71262;-25.924;28.194;2023-07-13T09:01:33;86181.81;;;20.67;33.72
55486;BME280;71262;-25.924;28.194;2023-07-13T09:03:58;86174.53;;;20.44;33.72
55486;BME280;71262;-25.924;28.194;2023-07-13T09:06:17;86171.01;;;20.69;33.34
55486;BME280;71262;-25.924;28.194;2023-07-13T09:08:54;86167.28;;;20.53;33.59
55486;BME280;71262;-25.924;28.194;2023-07-13T09:11:19;86163.76;;;20.74;33.27
55486;BME280;71262;-25.924;28.194;2023-07-13T09:13:37;86160.81;;;20.49;33.30
55486;BME280;71262;-25.924;28.194;2023-07-13T09:16:00;86156.07;;;20.67;33.30
55486;BME280;71262;-25.924;28.194;2023-07-13T09:18:27;86152.65;;;20.37;33.47
55486;BME280;71262;-25.924;28.194;2023-07-13T09:20:51;86154.01;;;20.83;33.01
55486;BME280;71262;-25.924;28.194;2023-07-13T09:23:16;86148.98;;;20.58;33.22
55486;BME280;71262;-25.924;28.194;2023-07-13T09:25:38;86147.33;;;20.46;33.36
55486;BME280;71262;-25.924;28.194;2023-07-13T09:28:11;86144.85;;;20.32;33.27
55486;BME280;71262;-25.924;28.194;2023-07-13T09:30:33;86140.99;;;20.16;33.38
55486;BME280;71262;-25.924;28.194;2023-07-13T09:32:53;86133.59;;;20.76;33.21
55486;BME280;71262;-25.924;28.194;2023-07-13T09:35:23;86138.86;;;20.52;33.15
55486;BME280;71262;-25.924;28.194;2023-07-13T09:37:44;86132.78;;;20.27;33.25
55486;BME280;71262;-25.924;28.194;2023-07-13T09:40:14;86128.26;;;20.42;33.20
55486;BME280;71262;-25.924;28.194;2023-07-13T09:42:33;86121.11;;;20.42;33.16
55486;BME280;71262;-25.924;28.194;2023-07-13T09:45:00;86117.86;;;20.48;32.93
55486;BME280;71262;-25.924;28.194;2023-07-13T09:47:26;86112.68;;;20.78;32.75
55486;BME280;71262;-25.924;28.194;2023-07-13T09:49:49;86108.64;;;20.38;32.78
55486;BME280;71262;-25.924;28.194;2023-07-13T09:52:15;86103.38;;;20.29;32.80
55486;BME280;71262;-25.924;28.194;2023-07-13T09:54:39;86100.76;;;20.18;32.82
55486;BME280;71262;-25.924;28.194;2023-07-13T09:57:12;86092.84;;;20.15;32.70
55486;BME280;71262;-25.924;28.194;2023-07-13T09:59:31;86088.22;;;20.08;32.55
55486;BME280;71262;-25.924;28.194;2023-07-13T10:01:54;86087.80;;;20.25;32.51
55486;BME280;71262;-25.924;28.194;2023-07-13T10:04:22;86080.81;;;20.52;32.47
55486;BME280;71262;-25.924;28.194;2023-07-13T10:06:45;86076.85;;;20.46;32.51
55486;BME280;71262;-25.924;28.194;2023-07-13T10:09:09;86072.87;;;20.29;32.74
55486;BME280;71262;-25.924;28.194;2023-07-13T10:11:36;86068.44;;;20.32;32.72
55486;BME280;71262;-25.924;28.194;2023-07-13T10:14:01;86064.86;;;20.25;32.85
55486;BME280;71262;-25.924;28.194;2023-07-13T10:16:26;86054.84;;;19.76;33.01
55486;BME280;71262;-25.924;28.194;2023-07-13T10:18:52;86051.90;;;19.83;32.89
55486;BME280;71262;-25.924;28.194;2023-07-13T10:21:17;86047.09;;;19.76;32.95
55486;BME280;71262;-25.924;28.194;2023-07-13T10:23:40;86039.69;;;19.96;33.01
55486;BME280;71262;-25.924;28.194;2023-07-13T10:26:06;86033.26;;;19.63;33.02
55486;BME280;71262;-25.924;28.194;2023-07-13T10:28:32;86032.94;;;19.64;33.14
55486;BME280;71262;-25.924;28.194;2023-07-13T10:30:57;86033.04;;;19.87;33.18
55486;BME280;71262;-25.924;28.194;2023-07-13T10:33:20;86024.87;;;19.79;33.22
55486;BME280;71262;-25.924;28.194;2023-07-13T10:35:45;86021.65;;;19.78;33.16
55486;BME280;71262;-25.924;28.194;2023-07-13T10:38:13;86018.08;;;20.29;32.99
55486;BME280;71262;-25.924;28.194;2023-07-13T10:40:37;86013.35;;;19.81;33.00
55486;BME280;71262;-25.924;28.194;2023-07-13T10:43:04;86004.67;;;19.72;33.00
55486;BME280;71262;-25.924;28.194;2023-07-13T10:45:25;86002.59;;;19.82;32.68
55486;BME280;71262;-25.924;28.194;2023-07-13T10:47:52;85999.23;;;19.58;32.52
55486;BME280;71262;-25.924;28.194;2023-07-13T10:50:19;85999.08;;;19.66;32.70
55486;BME280;71262;-25.924;28.194;2023-07-13T10:52:45;85986.96;;;19.95;32.37
55486;BME280;71262;-25.924;28.194;2023-07-13T10:55:11;85978.65;;;19.71;32.38
55486;BME280;71262;-25.924;28.194;2023-07-13T10:57:30;85972.82;;;19.64;32.43
55486;BME280;71262;-25.924;28.194;2023-07-13T11:02:26;85965.97;;;19.70;32.31
55486;BME280;71262;-25.924;28.194;2023-07-13T11:04:47;85961.14;;;19.94;32.30
55486;BME280;71262;-25.924;28.194;2023-07-13T11:07:17;85959.48;;;19.69;32.29
55486;BME280;71262;-25.924;28.194;2023-07-13T11:09:38;85953.89;;;19.84;32.33
55486;BME280;71262;-25.924;28.194;2023-07-13T11:12:02;85948.06;;;19.63;32.26
55486;BME280;71262;-25.924;28.194;2023-07-13T11:14:29;85942.63;;;19.63;32.26
55486;BME280;71262;-25.924;28.194;2023-07-13T11:16:51;85940.16;;;19.75;32.28
55486;BME280;71262;-25.924;28.194;2023-07-13T11:19:25;85940.58;;;20.02;32.17
55486;BME280;71262;-25.924;28.194;2023-07-13T11:24:14;85935.06;;;19.40;32.27
55486;BME280;71262;-25.924;28.194;2023-07-13T11:26:39;85934.12;;;19.62;32.23
55486;BME280;71262;-25.924;28.194;2023-07-13T11:28:57;85925.25;;;19.66;32.19
55486;BME280;71262;-25.924;28.194;2023-07-13T11:31:22;85927.30;;;19.77;32.29
55486;BME280;71262;-25.924;28.194;2023-07-13T11:33:56;85927.22;;;19.47;32.31
55486;BME280;71262;-25.924;28.194;2023-07-13T11:36:14;85921.80;;;19.46;32.25
55486;BME280;71262;-25.924;28.194;2023-07-13T11:38:39;85923.90;;;19.43;32.22
55486;BME280;71262;-25.924;28.194;2023-07-13T11:41:05;85919.15;;;19.23;32.17
55486;BME280;71262;-25.924;28.194;2023-07-13T11:43:27;85914.42;;;19.38;32.18
55486;BME280;71262;-25.924;28.194;2023-07-13T11:45:53;85914.01;;;19.55;32.20
55486;BME280;71262;-25.924;28.194;2023-07-13T11:48:20;85914.11;;;19.01;32.23
55486;BME280;71262;-25.924;28.194;2023-07-13T11:50:53;85914.69;;;19.38;32.23
55486;BME280;71262;-25.924;28.194;2023-07-13T11:53:12;85915.17;;;19.42;32.16
55486;BME280;71262;-25.924;28.194;2023-07-13T11:55:38;85911.01;;;19.38;32.13
55486;BME280;71262;-25.924;28.194;2023-07-13T11:58:00;85911.48;;;19.30;32.15
55486;BME280;71262;-25.924;28.194;2023-07-13T12:00:29;85907.55;;;19.27;32.18
55486;BME280;71262;-25.924;28.194;2023-07-13T12:02:51;85906.69;;;19.21;32.14
55486;BME280;71262;-25.924;28.194;2023-07-13T12:05:15;85907.91;;;19.23;32.09
55486;BME280;71262;-25.924;28.194;2023-07-13T12:07:39;85906.09;;;19.17;32.08
55486;BME280;71262;-25.924;28.194;2023-07-13T12:10:16;85904.09;;;19.17;32.04
55486;BME280;71262;-25.924;28.194;2023-07-13T12:12:39;85898.99;;;18.93;32.01
55486;BME280;71262;-25.924;28.194;2023-07-13T12:15:00;85894.67;;;19.14;31.99
55486;BME280;71262;-25.924;28.194;2023-07-13T12:17:28;85892.54;;;19.11;31.95
55486;BME280;71262;-25.924;28.194;2023-07-13T12:19:50;85887.28;;;19.06;31.97
55486;BME280;71262;-25.924;28.194;2023-07-13T12:22:17;85886.97;;;19.32;31.95
55486;BME280;71262;-25.924;28.194;2023-07-13T12:24:41;85888.37;;;19.03;31.94
55486;BME280;71262;-25.924;28.194;2023-07-13T12:27:14;85884.99;;;19.04;31.92
55486;BME280;71262;-25.924;28.194;2023-07-13T12:29:31;85880.39;;;19.34;31.83
55486;BME280;71262;-25.924;28.194;2023-07-13T12:31:55;85881.86;;;18.82;31.82
55486;BME280;71262;-25.924;28.194;2023-07-13T12:34:23;85881.97;;;19.01;31.79